sensor_id;sensor_type;location;lat;lon;timestamp;pressure;altitude;pressure_sealevel;temperature;humidity
48796;BME280;34607;48.520;-1.330;2022-10-17T00:00:21;99873.44;;;15.95;100.00
48796;BME280;34607;48.520;-1.330;2022-10-17T00:02:48;99869.09;;;15.94;100.00
48796;BME280;34607;48.520;-1.330;2022-10-17T00:05:15;99864.78;;;15.93;100.00
48796;BME280;34607;48.520;-1.330;2022-10-17T00:07:42;99869.16;;;15.90;100.00
48796;BME280;34607;48.520;-1.330;2022-10-17T00:10:09;99871.78;;;15.90;100.00
48796;BME280;34607;48.520;-1.330;2022-10-17T00:12:36;99870.94;;;15.87;100.00
48796;BME280;34607;48.520;-1.330;2022-10-17T00:15:06;99873.44;;;15.95;100.00
48796;BME280;34607;48.520;-1.330;2022-10-17T00:17:35;99884.81;;;15.92;100.00
48796;BME280;34607;48.520;-1.330;2022-10-17T00:20:03;99881.28;;;15.93;100.00
48796;BME280;34607;48.520;-1.330;2022-10-17T00:22:30;99880.47;;;15.89;100.00
48796;BME280;34607;48.520;-1.330;2022-10-17T00:24:57;99880.44;;;15.93;100.00
48796;BME280;34607;48.520;-1.330;2022-10-17T00:27:24;99877.00;;;15.90;100.00
48796;BME280;34607;48.520;-1.330;2022-10-17T00:29:51;99877.84;;;15.91;100.00
48796;BME280;34607;48.520;-1.330;2022-10-17T00:32:19;99885.69;;;15.91;100.00
48796;BME280;34607;48.520;-1.330;2022-10-17T00:34:48;99886.50;;;15.93;100.00
48796;BME280;34607;48.520;-1.330;2022-10-17T00:37:17;99890.03;;;15.90;100.00
48796;BME280;34607;48.520;-1.330;2022-10-17T00:39:44;99895.28;;;15.90;100.00
48796;BME280;34607;48.520;-1.330;2022-10-17T00:42:12;99903.09;;;15.90;100.00
48796;BME280;34607;48.520;-1.330;2022-10-17T00:45:11;99925.69;;;15.91;100.00
48796;BME280;34607;48.520;-1.330;2022-10-17T00:47:44;99925.69;;;15.93;100.00
48796;BME280;34607;48.520;-1.330;2022-10-17T00:50:15;99930.84;;;15.98;100.00
48796;BME280;34607;48.520;-1.330;2022-10-17T00:52:42;99942.13;;;16.01;100.00
48796;BME280;34607;48.520;-1.330;2022-10-17T00:55:14;99947.31;;;16.04;100.00
48796;BME280;34607;48.520;-1.330;2022-10-17T00:57:42;99944.72;;;16.03;100.00
48796;BME280;34607;48.520;-1.330;2022-10-17T01:00:12;99948.16;;;16.06;100.00
48796;BME280;34607;48.520;-1.330;2022-10-17T01:02:40;99954.22;;;16.07;100.00
48796;BME280;34607;48.520;-1.330;2022-10-17T01:05:08;99946.47;;;16.02;100.00
48796;BME280;34607;48.520;-1.330;2022-10-17T01:07:39;99959.44;;;16.08;100.00
48796;BME280;34607;48.520;-1.330;2022-10-17T01:10:08;99949.03;;;16.05;100.00
48796;BME280;34607;48.520;-1.330;2022-10-17T01:12:56;99947.31;;;16.06;100.00
48796;BME280;34607;48.520;-1.330;2022-10-17T01:15:38;99954.31;;;16.02;100.00
48796;BME280;34607;48.520;-1.330;2022-10-17T01:18:16;99958.63;;;16.05;100.00
48796;BME280;34607;48.520;-1.330;2022-10-17T01:26:55;99955.06;;;16.09;100.00
48796;BME280;34607;48.520;-1.330;2022-10-17T01:29:40;99934.38;;;15.94;100.00
48796;BME280;34607;48.520;-1.330;2022-10-17T01:32:16;99959.44;;;16.10;100.00
48796;BME280;34607;48.520;-1.330;2022-10-17T01:34:49;99961.16;;;16.11;100.00
48796;BME280;34607;48.520;-1.330;2022-10-17T01:37:24;99951.56;;;16.13;100.00
48796;BME280;34607;48.520;-1.330;2022-10-17T01:40:00;99947.19;;;16.14;100.00
48796;BME280;34607;48.520;-1.330;2022-10-17T01:42:34;99947.19;;;16.12;100.00
48796;BME280;34607;48.520;-1.330;2022-10-17T01:45:07;99948.13;;;16.08;100.00
48796;BME280;34607;48.520;-1.330;2022-10-17T01:47:40;99945.50;;;16.09;100.00
48796;BME280;34607;48.520;-1.330;2022-10-17T01:50:12;99944.63;;;16.09;100.00
48796;BME280;34607;48.520;-1.330;2022-10-17T01:52:44;99942.88;;;16.11;100.00
48796;BME280;34607;48.520;-1.330;2022-10-17T01:55:17;99944.59;;;16.12;100.00
48796;BME280;34607;48.520;-1.330;2022-10-17T01:57:49;99932.41;;;16.13;100.00
48796;BME280;34607;48.520;-1.330;2022-10-17T02:00:20;99941.13;;;16.12;100.00
48796;BME280;34607;48.520;-1.330;2022-10-17T02:02:55;99933.31;;;16.08;100.00
48796;BME280;34607;48.520;-1.330;2022-10-17T02:05:27;99942.94;;;16.06;100.00
48796;BME280;34607;48.520;-1.330;2022-10-17T02:07:56;99950.72;;;16.11;100.00
48796;BME280;34607;48.520;-1.330;2022-10-17T02:10:30;99948.09;;;16.11;100.00
48796;BME280;34607;48.520;-1.330;2022-10-17T02:13:04;99942.81;;;16.14;100.00
48796;BME280;34607;48.520;-1.330;2022-10-17T02:16:05;99944.59;;;16.12;100.00
48796;BME280;34607;48.520;-1.330;2022-10-17T02:18:50;99942.88;;;16.11;100.00
48796;BME280;34607;48.520;-1.330;2022-10-17T02:21:29;99927.22;;;16.11;100.00
48796;BME280;34607;48.520;-1.330;2022-10-17T02:24:05;99929.84;;;16.09;100.00
48796;BME280;34607;48.520;-1.330;2022-10-17T02:26:38;99932.41;;;16.13;100.00
48796;BME280;34607;48.520;-1.330;2022-10-17T02:29:11;99942.88;;;16.11;100.00
48796;BME280;34607;48.520;-1.330;2022-10-17T02:31:45;99941.13;;;16.10;100.00
48796;BME280;34607;48.520;-1.330;2022-10-17T02:34:18;99928.22;;;16.01;100.00
48796;BME280;34607;48.520;-1.330;2022-10-17T02:36:49;99942.91;;;16.08;100.00
48796;BME280;34607;48.520;-1.330;2022-10-17T02:39:18;99943.72;;;16.12;100.00
48796;BME280;34607;48.520;-1.330;2022-10-17T02:41:47;99943.75;;;16.08;100.00
48796;BME280;34607;48.520;-1.330;2022-10-17T02:44:15;99955.97;;;16.09;100.00
48796;BME280;34607;48.520;-1.330;2022-10-17T02:46:44;99936.03;;;16.01;100.00
48796;BME280;34607;48.520;-1.330;2022-10-17T02:49:17;99934.41;;;15.92;100.00
48796;BME280;34607;48.520;-1.330;2022-10-17T02:51:52;99946.44;;;16.04;100.00
48796;BME280;34607;48.520;-1.330;2022-10-17T02:54:27;99955.16;;;16.03;100.00
48796;BME280;34607;48.520;-1.330;2022-10-17T02:57:01;99938.69;;;15.98;100.00
48796;BME280;34607;48.520;-1.330;2022-10-17T02:59:32;99953.34;;;16.09;100.00
48796;BME280;34607;48.520;-1.330;2022-10-17T03:02:02;99961.16;;;16.11;100.00
48796;BME280;34607;48.520;-1.330;2022-10-17T03:04:31;99953.34;;;16.09;100.00
48796;BME280;34607;48.520;-1.330;2022-10-17T03:06:59;99951.63;;;16.07;100.00
48796;BME280;34607;48.520;-1.330;2022-10-17T03:09:26;99958.56;;;16.11;100.00
48796;BME280;34607;48.520;-1.330;2022-10-17T03:11:53;99954.16;;;16.13;100.00
48796;BME280;34607;48.520;-1.330;2022-10-17T03:14:20;99958.56;;;16.11;100.00
48796;BME280;34607;48.520;-1.330;2022-10-17T03:16:47;99963.78;;;16.11;100.00
48796;BME280;34607;48.520;-1.330;2022-10-17T03:19:16;99969.88;;;16.10;100.00
48796;BME280;34607;48.520;-1.330;2022-10-17T03:21:45;99967.22;;;16.15;100.00
48796;BME280;34607;48.520;-1.330;2022-10-17T03:24:12;99974.22;;;16.13;100.00
48796;BME280;34607;48.520;-1.330;2022-10-17T03:26:39;99972.47;;;16.10;100.00
48796;BME280;34607;48.520;-1.330;2022-10-17T03:29:06;99970.72;;;16.10;100.00
48796;BME280;34607;48.520;-1.330;2022-10-17T03:31:34;99975.91;;;16.15;100.00
48796;BME280;34607;48.520;-1.330;2022-10-17T03:34:02;99981.13;;;16.15;100.00
48796;BME280;34607;48.520;-1.330;2022-10-17T03:36:30;99988.94;;;16.17;100.00
48796;BME280;34607;48.520;-1.330;2022-10-17T03:38:58;99991.53;;;16.20;100.00
48796;BME280;34607;48.520;-1.330;2022-10-17T03:41:26;99990.72;;;16.16;100.00
48796;BME280;34607;48.520;-1.330;2022-10-17T03:43:53;99982.84;;;16.18;100.00
48796;BME280;34607;48.520;-1.330;2022-10-17T03:46:21;99981.06;;;16.20;100.00
48796;BME280;34607;48.520;-1.330;2022-10-17T03:48:49;99988.91;;;16.20;100.00
48796;BME280;34607;48.520;-1.330;2022-10-17T03:51:16;99995.88;;;16.19;100.00
48796;BME280;34607;48.520;-1.330;2022-10-17T03:53:48;100000.28;;;16.16;100.00
48796;BME280;34607;48.520;-1.330;2022-10-17T03:56:18;100005.47;;;16.17;100.00
48796;BME280;34607;48.520;-1.330;2022-10-17T03:58:54;99996.97;;;16.03;100.00
48796;BME280;34607;48.520;-1.330;2022-10-17T04:01:21;100014.22;;;16.15;100.00
48796;BME280;34607;48.520;-1.330;2022-10-17T04:03:49;100020.31;;;16.14;100.00
48796;BME280;34607;48.520;-1.330;2022-10-17T04:06:17;100026.47;;;16.11;100.00
48796;BME280;34607;48.520;-1.330;2022-10-17T04:08:45;100030.91;;;16.04;100.00
48796;BME280;34607;48.520;-1.330;2022-10-17T04:11:21;100043.09;;;16.02;100.00
48796;BME280;34607;48.520;-1.330;2022-10-17T04:13:51;100032.66;;;16.02;100.00
48796;BME280;34607;48.520;-1.330;2022-10-17T04:16:19;100048.22;;;16.12;100.00
48796;BME280;34607;48.520;-1.330;2022-10-17T04:18:57;100069.13;;;16.12;100.00
48796;BME280;34607;48.520;-1.330;2022-10-17T04:21:28;100073.47;;;16.13;100.00
48796;BME280;34607;48.520;-1.330;2022-10-17T04:23:59;100056.06;;;16.10;100.00
48796;BME280;34607;48.520;-1.330;2022-10-17T04:26:41;100069.13;;;16.12;100.00
48796;BME280;34607;48.520;-1.330;2022-10-17T04:29:08;100070.00;;;16.09;100.00
48796;BME280;34607;48.520;-1.330;2022-10-17T04:31:36;100075.16;;;16.15;100.00
48796;BME280;34607;48.520;-1.330;2022-10-17T04:34:12;100072.56;;;16.14;100.00
48796;BME280;34607;48.520;-1.330;2022-10-17T04:36:40;100069.09;;;16.13;100.00
48796;BME280;34607;48.520;-1.330;2022-10-17T04:39:07;100070.88;;;16.11;100.00
48796;BME280;34607;48.520;-1.330;2022-10-17T04:41:35;100081.34;;;16.08;100.00
48796;BME280;34607;48.520;-1.330;2022-10-17T04:44:04;100053.56;;;16.01;100.00
48796;BME280;34607;48.520;-1.330;2022-10-17T04:46:35;100073.47;;;16.11;100.00
48796;BME280;34607;48.520;-1.330;2022-10-17T04:49:03;100076.94;;;16.13;100.00
48796;BME280;34607;48.520;-1.330;2022-10-17T04:51:30;100081.25;;;16.16;100.00
48796;BME280;34607;48.520;-1.330;2022-10-17T04:54:20;100089.19;;;16.06;100.00
48796;BME280;34607;48.520;-1.330;2022-10-17T04:56:52;100090.94;;;16.07;100.00
48796;BME280;34607;48.520;-1.330;2022-10-17T04:59:21;100103.94;;;16.10;100.00
48796;BME280;34607;48.520;-1.330;2022-10-17T05:01:55;100106.56;;;16.10;100.00
48796;BME280;34607;48.520;-1.330;2022-10-17T05:04:22;100116.97;;;16.15;100.00
48796;BME280;34607;48.520;-1.330;2022-10-17T05:06:50;100125.66;;;16.16;100.00
48796;BME280;34607;48.520;-1.330;2022-10-17T05:09:29;100129.16;;;16.15;100.00
48796;BME280;34607;48.520;-1.330;2022-10-17T05:11:57;100133.50;;;16.14;100.00
48796;BME280;34607;48.520;-1.330;2022-10-17T05:14:28;100151.78;;;16.17;100.00
48796;BME280;34607;48.520;-1.330;2022-10-17T05:16:55;100156.16;;;16.12;100.00
48796;BME280;34607;48.520;-1.330;2022-10-17T05:19:23;100153.63;;;16.07;100.00
48796;BME280;34607;48.520;-1.330;2022-10-17T05:21:50;100151.03;;;16.06;100.00
48796;BME280;34607;48.520;-1.330;2022-10-17T05:24:17;100143.22;;;16.01;100.00
48796;BME280;34607;48.520;-1.330;2022-10-17T05:26:44;100154.53;;;16.00;100.00
48796;BME280;34607;48.520;-1.330;2022-10-17T05:29:11;100151.09;;;15.97;100.00
48796;BME280;34607;48.520;-1.330;2022-10-17T05:31:45;100156.28;;;16.01;100.00
48796;BME280;34607;48.520;-1.330;2022-10-17T05:34:12;100165.81;;;16.05;100.00
48796;BME280;34607;48.520;-1.330;2022-10-17T05:36:39;100159.81;;;15.97;100.00
48796;BME280;34607;48.520;-1.330;2022-10-17T05:39:10;100171.97;;;16.00;100.00
48796;BME280;34607;48.520;-1.330;2022-10-17T05:41:39;100180.66;;;15.99;100.00
48796;BME280;34607;48.520;-1.330;2022-10-17T05:44:06;100185.09;;;15.92;100.00
48796;BME280;34607;48.520;-1.330;2022-10-17T05:46:40;100190.31;;;15.92;100.00
48796;BME280;34607;48.520;-1.330;2022-10-17T05:49:10;100192.03;;;15.95;100.00
48796;BME280;34607;48.520;-1.330;2022-10-17T05:51:37;100191.22;;;15.88;100.00
48796;BME280;34607;48.520;-1.330;2022-10-17T05:54:05;100190.38;;;15.84;100.00
48796;BME280;34607;48.520;-1.330;2022-10-17T05:56:34;100202.56;;;15.85;100.00
48796;BME280;34607;48.520;-1.330;2022-10-17T05:59:01;100206.88;;;15.88;100.00
48796;BME280;34607;48.520;-1.330;2022-10-17T06:01:42;100207.78;;;15.85;100.00
48796;BME280;34607;48.520;-1.330;2022-10-17T06:04:11;100207.81;;;15.82;100.00
48796;BME280;34607;48.520;-1.330;2022-10-17T06:06:38;100202.63;;;15.76;100.00
48796;BME280;34607;48.520;-1.330;2022-10-17T06:09:06;100215.69;;;15.73;100.00
48796;BME280;34607;48.520;-1.330;2022-10-17T06:11:37;100203.53;;;15.64;100.00
48796;BME280;34607;48.520;-1.330;2022-10-17T06:14:05;100194.09;;;15.49;100.00
48796;BME280;34607;48.520;-1.330;2022-10-17T06:16:34;100204.53;;;15.48;100.00
48796;BME280;34607;48.520;-1.330;2022-10-17T06:19:01;100215.84;;;15.45;100.00
48796;BME280;34607;48.520;-1.330;2022-10-17T06:21:30;100208.91;;;15.40;100.00
48796;BME280;34607;48.520;-1.330;2022-10-17T06:24:09;100200.34;;;15.16;100.00
48796;BME280;34607;48.520;-1.330;2022-10-17T06:26:39;100234.16;;;15.36;100.00
48796;BME280;34607;48.520;-1.330;2022-10-17T06:29:08;100240.22;;;15.36;100.00
48796;BME280;34607;48.520;-1.330;2022-10-17T06:31:41;100251.66;;;15.17;100.00
48796;BME280;34607;48.520;-1.330;2022-10-17T06:34:09;100255.94;;;15.27;100.00
48796;BME280;34607;48.520;-1.330;2022-10-17T06:36:39;100251.56;;;15.37;100.00
48796;BME280;34607;48.520;-1.330;2022-10-17T06:39:07;100248.91;;;15.39;100.00
48796;BME280;34607;48.520;-1.330;2022-10-17T06:41:39;100265.47;;;15.41;100.00
48796;BME280;34607;48.520;-1.330;2022-10-17T06:44:09;100262.84;;;15.41;100.00
48796;BME280;34607;48.520;-1.330;2022-10-17T06:46:55;100267.22;;;15.34;100.00
48796;BME280;34607;48.520;-1.330;2022-10-17T06:49:22;100275.06;;;15.32;100.00
48796;BME280;34607;48.520;-1.330;2022-10-17T06:52:17;100276.81;;;15.29;100.00
48796;BME280;34607;48.520;-1.330;2022-10-17T06:55:13;100286.41;;;15.24;100.00
48796;BME280;34607;48.520;-1.330;2022-10-17T06:57:53;100297.69;;;15.30;100.00
48796;BME280;34607;48.520;-1.330;2022-10-17T07:00:35;100298.59;;;15.08;100.00
48796;BME280;34607;48.520;-1.330;2022-10-17T07:03:03;100300.31;;;15.18;100.00
48796;BME280;34607;48.520;-1.330;2022-10-17T07:05:30;100305.53;;;15.23;100.00
48796;BME280;34607;48.520;-1.330;2022-10-17T07:07:59;100301.16;;;15.23;100.00
48796;BME280;34607;48.520;-1.330;2022-10-17T07:10:26;100296.84;;;15.22;100.00
48796;BME280;34607;48.520;-1.330;2022-10-17T07:12:53;100292.47;;;15.26;100.00
48796;BME280;34607;48.520;-1.330;2022-10-17T07:15:20;100294.22;;;15.24;100.00
48796;BME280;34607;48.520;-1.330;2022-10-17T07:17:47;100294.22;;;15.22;100.00
48796;BME280;34607;48.520;-1.330;2022-10-17T07:20:17;100296.84;;;15.24;100.00
48796;BME280;34607;48.520;-1.330;2022-10-17T07:22:44;100306.38;;;15.23;100.00
48796;BME280;34607;48.520;-1.330;2022-10-17T07:25:13;100324.63;;;15.25;100.00
48796;BME280;34607;48.520;-1.330;2022-10-17T07:27:48;100331.59;;;15.29;100.00
48796;BME280;34607;48.520;-1.330;2022-10-17T07:30:17;100335.91;;;15.36;100.00
48796;BME280;34607;48.520;-1.330;2022-10-17T07:32:55;100328.09;;;15.36;100.00
48796;BME280;34607;48.520;-1.330;2022-10-17T07:35:22;100344.59;;;15.33;100.00
48796;BME280;34607;48.520;-1.330;2022-10-17T07:37:50;100340.28;;;15.34;100.00
48796;BME280;34607;48.520;-1.330;2022-10-17T07:40:20;100339.38;;;15.40;100.00
48796;BME280;34607;48.520;-1.330;2022-10-17T07:42:48;100348.06;;;15.42;100.00
48796;BME280;34607;48.520;-1.330;2022-10-17T07:45:15;100331.56;;;15.35;100.00
48796;BME280;34607;48.520;-1.330;2022-10-17T07:47:43;100353.28;;;15.42;100.00
48796;BME280;34607;48.520;-1.330;2022-10-17T07:50:14;100369.78;;;15.48;100.00
48796;BME280;34607;48.520;-1.330;2022-10-17T07:52:41;100380.22;;;15.51;100.00
48796;BME280;34607;48.520;-1.330;2022-10-17T07:55:08;100385.44;;;15.53;100.00
48796;BME280;34607;48.520;-1.330;2022-10-17T07:57:37;100391.53;;;15.53;100.00
48796;BME280;34607;48.520;-1.330;2022-10-17T08:00:06;100396.72;;;15.57;100.00
48796;BME280;34607;48.520;-1.330;2022-10-17T08:02:38;100398.44;;;15.64;100.00
48796;BME280;34607;48.520;-1.330;2022-10-17T08:05:05;100405.41;;;15.65;100.00
48796;BME280;34607;48.520;-1.330;2022-10-17T08:07:33;100425.44;;;15.60;100.00
48796;BME280;34607;48.520;-1.330;2022-10-17T08:10:00;100412.41;;;15.57;100.00
48796;BME280;34607;48.520;-1.330;2022-10-17T08:12:27;100439.31;;;15.74;100.00
48796;BME280;34607;48.520;-1.330;2022-10-17T08:14:58;100434.13;;;15.77;100.00
48796;BME280;34607;48.520;-1.330;2022-10-17T08:17:25;100454.09;;;15.83;100.00
48796;BME280;34607;48.520;-1.330;2022-10-17T08:19:52;100454.94;;;15.91;100.00
48796;BME280;34607;48.520;-1.330;2022-10-17T08:22:19;100467.97;;;15.99;100.00
48796;BME280;34607;48.520;-1.330;2022-10-17T08:24:46;100461.81;;;16.12;100.00
48796;BME280;34607;48.520;-1.330;2022-10-17T08:27:13;100449.53;;;16.29;100.00
48796;BME280;34607;48.520;-1.330;2022-10-17T08:29:46;100444.19;;;16.45;100.00
48796;BME280;34607;48.520;-1.330;2022-10-17T08:32:19;100440.66;;;16.55;100.00
48796;BME280;34607;48.520;-1.330;2022-10-17T08:34:46;100441.47;;;16.65;100.00
48796;BME280;34607;48.520;-1.330;2022-10-17T08:37:13;100449.19;;;16.80;100.00
48796;BME280;34607;48.520;-1.330;2022-10-17T08:39:41;100434.34;;;16.82;100.00
48796;BME280;34607;48.520;-1.330;2022-10-17T08:42:25;100451.69;;;16.99;100.00
48796;BME280;34607;48.520;-1.330;2022-10-17T08:45:04;100453.38;;;17.04;100.00
48796;BME280;34607;48.520;-1.330;2022-10-17T08:47:39;100466.50;;;17.01;100.00
48796;BME280;34607;48.520;-1.330;2022-10-17T08:50:13;100482.22;;;17.00;100.00
48796;BME280;34607;48.520;-1.330;2022-10-17T08:52:46;100485.69;;;17.05;100.00
48796;BME280;34607;48.520;-1.330;2022-10-17T08:55:16;100468.38;;;16.85;100.00
48796;BME280;34607;48.520;-1.330;2022-10-17T08:57:43;100508.31;;;17.09;100.00
48796;BME280;34607;48.520;-1.330;2022-10-17T09:00:14;100520.53;;;17.10;100.00
48796;BME280;34607;48.520;-1.330;2022-10-17T09:02:53;100523.09;;;17.12;100.00
48796;BME280;34607;48.520;-1.330;2022-10-17T09:05:30;100520.56;;;17.04;100.00
48796;BME280;34607;48.520;-1.330;2022-10-17T09:08:10;100523.19;;;17.01;100.00
48796;BME280;34607;48.520;-1.330;2022-10-17T09:10:47;100520.69;;;16.84;100.00
48796;BME280;34607;48.520;-1.330;2022-10-17T09:13:26;100521.56;;;16.83;100.00
48796;BME280;34607;48.520;-1.330;2022-10-17T09:18:59;100534.66;;;16.80;100.00
48796;BME280;34607;48.520;-1.330;2022-10-17T09:21:35;100527.75;;;16.66;100.00
48796;BME280;34607;48.520;-1.330;2022-10-17T09:24:09;100546.88;;;16.76;100.00
48796;BME280;34607;48.520;-1.330;2022-10-17T09:26:38;100539.88;;;16.84;100.00
48796;BME280;34607;48.520;-1.330;2022-10-17T09:29:14;100519.91;;;16.63;100.00
48796;BME280;34607;48.520;-1.330;2022-10-17T09:31:44;100532.88;;;16.79;100.00
48796;BME280;34607;48.520;-1.330;2022-10-17T09:34:15;100532.00;;;16.86;100.00
48796;BME280;34607;48.520;-1.330;2022-10-17T09:36:42;100539.78;;;16.97;100.00
48796;BME280;34607;48.520;-1.330;2022-10-17T09:39:13;100544.91;;;17.12;100.00
48796;BME280;34607;48.520;-1.330;2022-10-17T09:41:42;100531.84;;;17.09;100.00
48796;BME280;34607;48.520;-1.330;2022-10-17T09:44:15;100540.28;;;17.45;100.00
48796;BME280;34607;48.520;-1.330;2022-10-17T09:46:50;100541.84;;;17.63;100.00
48796;BME280;34607;48.520;-1.330;2022-10-17T09:49:25;100548.88;;;17.58;100.00
48796;BME280;34607;48.520;-1.330;2022-10-17T09:51:55;100553.06;;;17.77;100.00
48796;BME280;34607;48.520;-1.330;2022-10-17T09:54:23;100550.44;;;17.77;100.00
48796;BME280;34607;48.520;-1.330;2022-10-17T09:57:00;100550.47;;;17.76;100.00
48796;BME280;34607;48.520;-1.330;2022-10-17T09:59:30;100559.97;;;17.85;100.00
48796;BME280;34607;48.520;-1.330;2022-10-17T10:02:07;100567.84;;;17.89;100.00
48796;BME280;34607;48.520;-1.330;2022-10-17T10:04:36;100569.66;;;17.75;100.00
48796;BME280;34607;48.520;-1.330;2022-10-17T10:07:18;100570.59;;;17.72;100.00
48796;BME280;34607;48.520;-1.330;2022-10-17T10:09:47;100576.56;;;17.84;100.00
48796;BME280;34607;48.520;-1.330;2022-10-17T10:12:17;100578.34;;;17.86;100.00
48796;BME280;34607;48.520;-1.330;2022-10-17T10:14:45;100576.78;;;17.62;100.00
48796;BME280;34607;48.520;-1.330;2022-10-17T10:17:28;100596.91;;;17.57;100.00
48796;BME280;34607;48.520;-1.330;2022-10-17T10:20:01;100600.38;;;17.59;100.00
48796;BME280;34607;48.520;-1.330;2022-10-17T10:22:29;100598.59;;;17.61;100.00
48796;BME280;34607;48.520;-1.330;2022-10-17T10:25:07;100603.81;;;17.66;100.00
48796;BME280;34607;48.520;-1.330;2022-10-17T10:27:34;100609.00;;;17.72;100.00
48796;BME280;34607;48.520;-1.330;2022-10-17T10:30:03;100604.63;;;17.71;100.00
48796;BME280;34607;48.520;-1.330;2022-10-17T10:32:31;100594.28;;;17.58;100.00
48796;BME280;34607;48.520;-1.330;2022-10-17T10:35:02;100592.50;;;17.60;100.00
48796;BME280;34607;48.520;-1.330;2022-10-17T10:37:36;100610.69;;;17.77;100.00
48796;BME280;34607;48.520;-1.330;2022-10-17T10:40:14;100612.50;;;17.72;100.00
48796;BME280;34607;48.520;-1.330;2022-10-17T10:42:45;100619.53;;;17.63;100.00
48796;BME280;34607;48.520;-1.330;2022-10-17T10:45:16;100617.88;;;17.54;100.00
48796;BME280;34607;48.520;-1.330;2022-10-17T10:47:50;100629.28;;;17.48;100.00
48796;BME280;34607;48.520;-1.330;2022-10-17T10:50:25;100634.53;;;17.44;100.00
48796;BME280;34607;48.520;-1.330;2022-10-17T10:53:12;100638.97;;;17.32;100.00
48796;BME280;34607;48.520;-1.330;2022-10-17T10:55:45;100648.66;;;17.24;100.00
48796;BME280;34607;48.520;-1.330;2022-10-17T10:58:24;100652.16;;;17.18;100.00
48796;BME280;34607;48.520;-1.330;2022-10-17T11:00:53;100644.31;;;17.17;100.00
48796;BME280;34607;48.520;-1.330;2022-10-17T11:03:25;100654.75;;;17.20;100.00
48796;BME280;34607;48.520;-1.330;2022-10-17T11:05:57;100647.72;;;17.31;100.00
48796;BME280;34607;48.520;-1.330;2022-10-17T11:08:30;100643.34;;;17.32;100.00
48796;BME280;34607;48.520;-1.330;2022-10-17T11:11:09;100644.25;;;17.29;100.00
48796;BME280;34607;48.520;-1.330;2022-10-17T11:13:46;100641.56;;;17.35;100.00
48796;BME280;34607;48.520;-1.330;2022-10-17T11:16:22;100638.06;;;17.39;100.00
48796;BME280;34607;48.520;-1.330;2022-10-17T11:18:55;100640.59;;;17.53;100.00
48796;BME280;34607;48.520;-1.330;2022-10-17T11:21:35;100648.44;;;17.55;100.00
48796;BME280;34607;48.520;-1.330;2022-10-17T11:24:11;100649.22;;;17.63;100.00
48796;BME280;34607;48.520;-1.330;2022-10-17T11:26:44;100648.25;;;17.75;100.00
48796;BME280;34607;48.520;-1.330;2022-10-17T11:29:12;100629.91;;;17.75;100.00
48796;BME280;34607;48.520;-1.330;2022-10-17T11:31:42;100655.13;;;17.93;100.00
48796;BME280;34607;48.520;-1.330;2022-10-17T11:34:14;100651.59;;;17.95;100.00
48796;BME280;34607;48.520;-1.330;2022-10-17T11:36:50;100659.50;;;17.92;100.00
48796;BME280;34607;48.520;-1.330;2022-10-17T11:39:21;100657.78;;;17.87;100.00
48796;BME280;34607;48.520;-1.330;2022-10-17T11:41:51;100655.25;;;17.76;100.00
48796;BME280;34607;48.520;-1.330;2022-10-17T11:44:23;100655.25;;;17.73;100.00
48796;BME280;34607;48.520;-1.330;2022-10-17T11:46:56;100649.97;;;17.81;100.00
48796;BME280;34607;48.520;-1.330;2022-10-17T11:49:28;100653.47;;;17.79;100.00
48796;BME280;34607;48.520;-1.330;2022-10-17T11:52:08;100659.50;;;17.92;100.00
48796;BME280;34607;48.520;-1.330;2022-10-17T11:54:41;100668.13;;;18.02;100.00
48796;BME280;34607;48.520;-1.330;2022-10-17T11:57:25;100662.00;;;18.06;100.00
48796;BME280;34607;48.520;-1.330;2022-10-17T12:00:06;100666.31;;;18.10;100.00
48796;BME280;34607;48.520;-1.330;2022-10-17T12:02:41;100659.38;;;18.06;100.00
48796;BME280;34607;48.520;-1.330;2022-10-17T12:05:19;100677.72;;;18.08;100.00
48796;BME280;34607;48.520;-1.330;2022-10-17T12:07:55;100672.50;;;18.05;100.00
48796;BME280;34607;48.520;-1.330;2022-10-17T12:10:38;100672.50;;;18.02;100.00
48796;BME280;34607;48.520;-1.330;2022-10-17T12:16:37;100679.47;;;18.04;100.00
48796;BME280;34607;48.520;-1.330;2022-10-17T12:19:28;100671.53;;;18.13;100.00
48796;BME280;34607;48.520;-1.330;2022-10-17T12:22:02;100661.78;;;18.26;100.00
48796;BME280;34607;48.520;-1.330;2022-10-17T12:24:39;100673.88;;;18.40;100.00
48796;BME280;34607;48.520;-1.330;2022-10-17T12:27:42;100667.78;;;18.39;100.00
48796;BME280;34607;48.520;-1.330;2022-10-17T12:30:22;100673.03;;;18.36;100.00
48796;BME280;34607;48.520;-1.330;2022-10-17T12:33:01;100661.66;;;18.39;100.00
48796;BME280;34607;48.520;-1.330;2022-10-17T12:35:32;100662.53;;;18.38;100.00
48796;BME280;34607;48.520;-1.330;2022-10-17T12:38:21;100669.47;;;18.42;100.00
48796;BME280;34607;48.520;-1.330;2022-10-17T12:40:57;100671.22;;;18.44;100.00
48796;BME280;34607;48.520;-1.330;2022-10-17T12:43:46;100670.31;;;18.45;100.00
48796;BME280;34607;48.520;-1.330;2022-10-17T12:49:35;100664.31;;;18.36;100.00
48796;BME280;34607;48.520;-1.330;2022-10-17T12:52:19;100664.59;;;18.08;100.00
48796;BME280;34607;48.520;-1.330;2022-10-17T12:54:51;100669.81;;;18.09;100.00
48796;BME280;34607;48.520;-1.330;2022-10-17T12:57:24;100666.25;;;18.17;100.00
48796;BME280;34607;48.520;-1.330;2022-10-17T12:59:53;100667.13;;;18.15;100.00
48796;BME280;34607;48.520;-1.330;2022-10-17T13:02:23;100665.31;;;18.22;100.00
48796;BME280;34607;48.520;-1.330;2022-10-17T13:04:56;100668.78;;;18.27;100.00
48796;BME280;34607;48.520;-1.330;2022-10-17T13:07:25;100665.16;;;18.38;100.00
48796;BME280;34607;48.520;-1.330;2022-10-17T13:09:52;100666.09;;;18.32;100.00
48796;BME280;34607;48.520;-1.330;2022-10-17T13:12:24;100659.22;;;18.22;100.00